Time;durP1;ratioP1;P1;durP2;ratioP2;P2;SDS_P1;SDS_P2;PMS_P1;PMS_P2;Temp;Humidity;BMP_temperature;BMP_pressure;BME280_temperature;BME280_humidity;BME280_pressure;Samples;Min_cycle;Max_cycle;Signal;HPM_P1;HPM_P2
2023/11/15 00:01:07;;;;;;;8.00;4.10;;;19.40;73.00;;;;;;5074800;28;20472;-78
2023/11/15 00:03:35;;;;;;;5.73;3.63;;;19.40;73.50;;;;;;5094423;28;20499;-80
2023/11/15 00:06:05;;;;;;;5.00;3.50;;;19.50;73.40;;;;;;5088293;28;20450;-78
2023/11/15 00:08:33;;;;;;;6.07;4.00;;;19.40;73.30;;;;;;5074928;28;20465;-79
2023/11/15 00:11:03;;;;;;;7.33;3.13;;;19.40;73.20;;;;;;5079524;28;20555;-79
2023/11/15 00:13:33;;;;;;;6.30;3.50;;;19.40;73.40;;;;;;5074011;28;20521;-79
2023/11/15 00:16:01;;;;;;;8.53;3.93;;;19.40;73.20;;;;;;5082678;28;20470;-79
2023/11/15 00:18:31;;;;;;;8.63;3.97;;;19.40;73.30;;;;;;5085534;28;20898;-78
2023/11/15 00:21:00;;;;;;;5.90;3.90;;;19.40;73.30;;;;;;5091439;28;20501;-80
2023/11/15 00:23:28;;;;;;;9.17;3.67;;;19.40;73.10;;;;;;5094336;28;20527;-79
2023/11/15 00:25:56;;;;;;;5.67;3.30;;;19.40;73.00;;;;;;5092577;28;20443;-79
2023/11/15 00:28:24;;;;;;;7.87;3.57;;;19.40;73.20;;;;;;5092634;28;20459;-78
2023/11/15 00:30:52;;;;;;;9.40;3.50;;;19.40;73.50;;;;;;5077662;28;20468;-79
2023/11/15 00:33:21;;;;;;;4.60;3.73;;;19.30;73.50;;;;;;5081000;28;20436;-79
2023/11/15 00:35:51;;;;;;;7.13;3.50;;;19.40;73.20;;;;;;5072046;28;20503;-79
2023/11/15 00:38:19;;;;;;;6.27;3.00;;;19.40;73.20;;;;;;5083283;28;20577;-78
2023/11/15 00:40:47;;;;;;;5.43;3.40;;;19.30;73.40;;;;;;5077361;28;20455;-79
2023/11/15 00:43:17;;;;;;;5.97;3.60;;;19.40;73.20;;;;;;5082699;28;20543;-79
2023/11/15 00:45:46;;;;;;;5.17;3.30;;;19.40;73.20;;;;;;5080384;28;20446;-79
2023/11/15 00:48:15;;;;;;;8.37;3.47;;;19.40;73.20;;;;;;5076818;28;20507;-79
2023/11/15 00:50:43;;;;;;;5.10;3.23;;;19.30;73.00;;;;;;5075479;28;20442;-79
2023/11/15 00:53:13;;;;;;;6.57;3.80;;;19.30;73.30;;;;;;5083471;28;20448;-80
2023/11/15 00:55:42;;;;;;;6.03;3.67;;;19.30;73.40;;;;;;5092061;28;20529;-80
2023/11/15 00:58:10;;;;;;;8.00;4.20;;;19.30;73.20;;;;;;5079280;28;20461;-79
2023/11/15 01:00:44;;;;;;;7.20;3.30;;;19.30;73.20;;;;;;5083981;28;20476;-79
2023/11/15 01:03:15;;;;;;;9.23;4.10;;;19.30;73.10;;;;;;5084063;28;20935;-79
2023/11/15 01:05:43;;;;;;;10.10;3.93;;;19.30;73.20;;;;;;5076150;28;20457;-79
2023/11/15 01:08:12;;;;;;;4.90;3.20;;;19.30;73.30;;;;;;5080570;28;20498;-79
2023/11/15 01:10:41;;;;;;;5.27;3.30;;;19.30;73.00;;;;;;5092587;28;20512;-78
2023/11/15 01:13:09;;;;;;;7.00;3.80;;;19.30;73.30;;;;;;5081863;28;20530;-80
2023/11/15 01:15:37;;;;;;;9.47;3.80;;;19.30;73.50;;;;;;5082177;28;20476;-79
2023/11/15 01:18:08;;;;;;;4.00;3.40;;;19.30;73.40;;;;;;5089982;28;20730;-79
2023/11/15 01:20:36;;;;;;;5.00;3.07;;;19.30;73.30;;;;;;5086520;28;20445;-79
2023/11/15 01:23:05;;;;;;;4.77;2.93;;;19.30;73.60;;;;;;5079079;28;20438;-79
2023/11/15 01:25:35;;;;;;;5.17;3.13;;;19.30;73.40;;;;;;5074487;28;20469;-79
2023/11/15 01:28:04;;;;;;;6.30;3.50;;;19.30;73.40;;;;;;5088400;28;20488;-79
2023/11/15 01:30:32;;;;;;;5.30;3.20;;;19.30;73.30;;;;;;5091545;28;20551;-79
2023/11/15 01:33:00;;;;;;;5.93;3.20;;;19.30;73.40;;;;;;5084330;28;20480;-78
2023/11/15 01:35:29;;;;;;;3.27;2.73;;;19.30;73.40;;;;;;5087842;28;20448;-78
2023/11/15 01:37:57;;;;;;;6.53;3.07;;;19.30;73.60;;;;;;5080504;28;20488;-79
2023/11/15 01:40:26;;;;;;;6.10;3.50;;;19.20;73.00;;;;;;5076288;28;20473;-79
2023/11/15 01:42:56;;;;;;;3.30;3.00;;;19.20;73.60;;;;;;5084249;28;20468;-79
2023/11/15 01:45:24;;;;;;;4.30;3.20;;;19.20;73.30;;;;;;5084456;28;20485;-79
2023/11/15 01:47:52;;;;;;;5.07;3.00;;;19.20;73.40;;;;;;5074401;28;20939;-80
2023/11/15 01:50:20;;;;;;;7.30;3.63;;;19.20;73.20;;;;;;5087537;28;20546;-79
2023/11/15 01:52:48;;;;;;;5.87;3.17;;;19.20;73.00;;;;;;5077148;28;20446;-78
2023/11/15 01:55:17;;;;;;;6.63;3.57;;;19.20;73.30;;;;;;5075235;28;20511;-79
2023/11/15 01:57:45;;;;;;;7.23;3.40;;;19.20;73.60;;;;;;5083953;28;20550;-78
2023/11/15 02:00:15;;;;;;;6.43;3.60;;;19.20;73.00;;;;;;5078610;28;20503;-79
2023/11/15 02:02:44;;;;;;;6.20;3.20;;;19.20;73.10;;;;;;5073347;28;20487;-79
2023/11/15 02:05:13;;;;;;;4.03;3.07;;;19.20;73.60;;;;;;5085295;28;20475;-79
2023/11/15 02:07:41;;;;;;;4.50;3.20;;;19.20;73.40;;;;;;5077162;28;20523;-79
2023/11/15 02:10:11;;;;;;;9.20;5.17;;;19.10;73.20;;;;;;5081595;28;20446;-78
2023/11/15 02:12:39;;;;;;;9.50;6.03;;;19.20;73.80;;;;;;5082993;28;20408;-77
2023/11/15 02:15:08;;;;;;;12.30;5.33;;;19.10;73.00;;;;;;5086089;28;20528;-77
2023/11/15 02:17:37;;;;;;;11.27;6.00;;;19.10;72.80;;;;;;5089589;28;20557;-78
2023/11/15 02:20:08;;;;;;;12.90;7.83;;;19.10;72.60;;;;;;5072993;28;20496;-78
2023/11/15 02:22:44;;;;;;;11.30;7.40;;;19.10;72.80;;;;;;5080768;28;20531;-78
2023/11/15 02:25:14;;;;;;;12.30;7.37;;;19.00;73.00;;;;;;5072564;28;20463;-77
2023/11/15 02:27:42;;;;;;;13.83;8.73;;;19.00;73.20;;;;;;5084909;28;20477;-77
2023/11/15 02:30:12;;;;;;;12.80;8.27;;;19.00;72.80;;;;;;5082435;28;21031;-78
2023/11/15 02:32:41;;;;;;;12.83;8.60;;;19.00;72.80;;;;;;5081354;28;20468;-78
2023/11/15 02:35:10;;;;;;;17.40;10.03;;;19.00;72.70;;;;;;5081539;28;20461;-79
2023/11/15 02:37:38;;;;;;;16.47;9.87;;;19.00;72.20;;;;;;5083588;28;20469;-79
2023/11/15 02:40:09;;;;;;;14.87;9.77;;;19.00;72.20;;;;;;5084752;28;20441;-78
2023/11/15 02:42:39;;;;;;;15.73;9.93;;;19.00;72.70;;;;;;5076168;28;20481;-78
2023/11/15 02:45:08;;;;;;;18.17;11.20;;;18.90;72.10;;;;;;5084174;28;20453;-78
2023/11/15 02:47:36;;;;;;;15.33;10.37;;;18.90;72.20;;;;;;5076137;28;20448;-79
2023/11/15 02:50:05;;;;;;;19.60;10.50;;;18.90;72.00;;;;;;5079538;28;20476;-78
2023/11/15 02:52:35;;;;;;;17.00;10.70;;;18.80;71.70;;;;;;5075187;28;20953;-78
2023/11/15 02:55:04;;;;;;;19.10;11.43;;;18.80;72.00;;;;;;5079818;28;20419;-79
2023/11/15 02:57:32;;;;;;;19.77;10.77;;;18.80;71.70;;;;;;5082826;28;20500;-77
2023/11/15 03:00:02;;;;;;;18.20;11.97;;;18.80;71.50;;;;;;5083977;28;20452;-77
2023/11/15 03:02:30;;;;;;;17.43;11.10;;;18.70;71.50;;;;;;5082410;28;20502;-78
2023/11/15 03:04:59;;;;;;;19.50;10.23;;;18.70;71.90;;;;;;5076106;28;20498;-77
2023/11/15 03:07:27;;;;;;;19.63;12.43;;;18.80;71.60;;;;;;5083071;28;20531;-77
2023/11/15 03:09:56;;;;;;;18.17;11.10;;;18.70;71.20;;;;;;5078538;28;20446;-78
2023/11/15 03:12:24;;;;;;;17.93;11.20;;;18.70;71.30;;;;;;5080598;28;20472;-77
2023/11/15 03:14:52;;;;;;;17.40;10.87;;;18.70;71.20;;;;;;5080330;28;20533;-78
2023/11/15 03:17:22;;;;;;;18.07;10.93;;;18.70;71.30;;;;;;5074278;28;20537;-78
2023/11/15 03:19:50;;;;;;;16.30;10.43;;;18.70;71.30;;;;;;5071707;28;20453;-77
2023/11/15 03:22:20;;;;;;;17.03;10.93;;;18.70;71.10;;;;;;5072898;28;20457;-78
2023/11/15 03:24:49;;;;;;;18.00;11.17;;;18.70;70.80;;;;;;5074921;28;20534;-77
2023/11/15 03:27:19;;;;;;;16.17;10.00;;;18.70;71.00;;;;;;5077590;28;20442;-78
2023/11/15 03:29:47;;;;;;;17.33;11.13;;;18.70;70.80;;;;;;5079908;28;20433;-78
2023/11/15 03:32:15;;;;;;;15.70;9.87;;;18.70;71.10;;;;;;5087183;28;20432;-78
2023/11/15 03:34:44;;;;;;;18.03;11.20;;;18.60;70.40;;;;;;5086258;28;20482;-77
2023/11/15 03:37:12;;;;;;;18.07;9.90;;;18.70;71.00;;;;;;5092029;28;20520;-77
2023/11/15 03:39:40;;;;;;;16.13;10.13;;;18.60;70.70;;;;;;5074465;28;20569;-78
2023/11/15 03:42:08;;;;;;;16.07;9.57;;;18.60;70.70;;;;;;5076036;28;20493;-78
2023/11/15 03:44:36;;;;;;;15.10;9.77;;;18.70;71.00;;;;;;5078222;28;20532;-77
2023/11/15 03:47:05;;;;;;;14.30;9.27;;;18.60;70.70;;;;;;5081365;28;20491;-78
2023/11/15 03:49:33;;;;;;;15.33;8.80;;;18.60;70.70;;;;;;5069589;22;20511;-77
2023/11/15 03:52:05;;;;;;;15.50;9.07;;;18.60;70.80;;;;;;5049044;28;20478;-78
2023/11/15 03:54:33;;;;;;;14.43;8.87;;;18.60;71.40;;;;;;5049164;28;20439;-76
2023/11/15 03:57:02;;;;;;;12.97;7.90;;;18.60;70.90;;;;;;5050977;28;20431;-76
2023/11/15 03:59:30;;;;;;;13.80;9.37;;;18.60;70.60;;;;;;5029966;28;20483;-76
2023/11/15 04:01:58;;;;;;;13.33;9.10;;;18.60;70.80;;;;;;5021636;28;20462;-75
2023/11/15 04:04:27;;;;;;;16.47;9.27;;;18.60;70.60;;;;;;5031659;28;20446;-76
2023/11/15 04:06:55;;;;;;;12.67;8.70;;;18.60;70.90;;;;;;5027075;28;20523;-74
2023/11/15 04:09:24;;;;;;;13.67;8.50;;;18.60;70.90;;;;;;5025122;28;20502;-76
2023/11/15 04:11:52;;;;;;;12.70;7.80;;;18.60;70.70;;;;;;5028165;28;20542;-75
2023/11/15 04:14:24;;;;;;;12.63;8.47;;;18.60;70.90;;;;;;5030695;28;20472;-76
2023/11/15 04:16:52;;;;;;;10.23;7.60;;;18.60;70.80;;;;;;5028403;28;20475;-75
2023/11/15 04:19:21;;;;;;;11.70;7.97;;;18.60;70.70;;;;;;5026488;28;20480;-75
2023/11/15 04:21:49;;;;;;;11.37;8.00;;;18.60;70.80;;;;;;5033573;28;20436;-75
2023/11/15 04:24:38;;;;;;;12.83;8.47;;;18.60;70.60;;;;;;5034663;28;20418;-76
2023/11/15 04:27:09;;;;;;;11.53;7.63;;;18.60;71.00;;;;;;5035128;28;20451;-76
2023/11/15 04:29:37;;;;;;;11.73;8.00;;;18.60;70.80;;;;;;5028309;28;20910;-77
2023/11/15 04:32:05;;;;;;;10.50;7.33;;;18.60;70.60;;;;;;5030889;28;20459;-76
2023/11/15 04:34:38;;;;;;;12.73;7.67;;;18.50;70.40;;;;;;5031314;28;20456;-76
2023/11/15 04:37:06;;;;;;;9.63;7.37;;;18.50;70.60;;;;;;5035378;28;20443;-76
2023/11/15 04:39:33;;;;;;;12.73;7.20;;;18.50;70.60;;;;;;5035101;28;20507;-76
2023/11/15 04:42:04;;;;;;;10.93;7.20;;;18.50;70.20;;;;;;5034700;28;20443;-77
2023/11/15 04:44:32;;;;;;;10.40;6.80;;;18.50;70.80;;;;;;5034989;28;20447;-76
2023/11/15 04:47:00;;;;;;;9.70;6.93;;;18.50;70.70;;;;;;5034650;28;20447;-76
2023/11/15 04:49:28;;;;;;;10.23;7.37;;;18.50;71.00;;;;;;5035555;28;20455;-76
2023/11/15 04:51:56;;;;;;;10.63;6.63;;;18.50;70.80;;;;;;5026529;28;20522;-76
2023/11/15 04:54:24;;;;;;;10.27;6.77;;;18.50;70.80;;;;;;5040844;28;20470;-76
2023/11/15 04:56:51;;;;;;;11.23;6.70;;;18.50;70.40;;;;;;5034797;28;20514;-76
2023/11/15 04:59:21;;;;;;;9.03;6.60;;;18.60;70.80;;;;;;5034787;28;20486;-75
2023/11/15 05:01:49;;;;;;;10.10;6.37;;;18.50;70.50;;;;;;5030910;28;20448;-76
2023/11/15 05:04:17;;;;;;;8.43;5.80;;;18.50;70.60;;;;;;5035215;28;20493;-76
2023/11/15 05:06:46;;;;;;;8.90;6.20;;;18.50;70.70;;;;;;5024415;28;20530;-76
2023/11/15 05:09:14;;;;;;;9.17;6.37;;;18.50;70.40;;;;;;5021521;28;20426;-76
2023/11/15 05:11:43;;;;;;;8.37;5.80;;;18.50;70.70;;;;;;5033230;28;20463;-75
2023/11/15 05:14:11;;;;;;;8.30;5.63;;;18.40;71.30;;;;;;5028055;28;20503;-77
2023/11/15 05:16:41;;;;;;;8.90;5.60;;;18.40;70.40;;;;;;5033335;28;20439;-76
2023/11/15 05:19:09;;;;;;;6.87;5.77;;;18.40;70.60;;;;;;5026538;28;20471;-76
2023/11/15 05:21:37;;;;;;;8.30;5.70;;;18.40;70.50;;;;;;5029503;28;20501;-76
2023/11/15 05:24:06;;;;;;;7.37;5.77;;;18.40;70.50;;;;;;5032089;28;20907;-76
2023/11/15 05:26:34;;;;;;;6.50;5.10;;;18.40;70.30;;;;;;5023548;28;20548;-76
2023/11/15 05:29:02;;;;;;;8.50;5.70;;;18.40;70.40;;;;;;5029801;28;20448;-75
2023/11/15 05:31:30;;;;;;;7.10;5.30;;;18.40;70.00;;;;;;5030345;28;20464;-76
2023/11/15 05:33:59;;;;;;;6.10;4.90;;;18.40;70.20;;;;;;5033064;28;20538;-76
2023/11/15 05:36:28;;;;;;;6.10;4.83;;;18.40;70.40;;;;;;5033046;28;20825;-76
2023/11/15 05:38:55;;;;;;;5.50;4.80;;;18.40;69.70;;;;;;5033179;28;20537;-76
2023/11/15 05:41:24;;;;;;;6.00;4.73;;;18.40;70.30;;;;;;5030845;28;20436;-76
2023/11/15 05:43:56;;;;;;;6.67;4.80;;;18.40;70.20;;;;;;5032672;28;20520;-77
2023/11/15 05:46:25;;;;;;;5.90;4.87;;;18.40;70.30;;;;;;5034347;28;20509;-76
2023/11/15 05:48:53;;;;;;;5.73;4.23;;;18.40;70.20;;;;;;5033670;28;20441;-76
2023/11/15 05:51:22;;;;;;;6.97;4.57;;;18.40;70.10;;;;;;5033698;28;20526;-76
2023/11/15 05:53:50;;;;;;;5.93;4.43;;;18.30;69.90;;;;;;5033431;28;20435;-77
2023/11/15 05:56:20;;;;;;;5.50;4.30;;;18.30;69.90;;;;;;5025732;28;20456;-78
2023/11/15 05:58:48;;;;;;;5.00;4.53;;;18.30;69.70;;;;;;5031243;28;20482;-76
2023/11/15 06:01:16;;;;;;;4.97;4.10;;;18.30;70.00;;;;;;5041818;28;20950;-77
2023/11/15 06:03:46;;;;;;;6.33;4.80;;;18.30;69.90;;;;;;5036451;28;20480;-76
2023/11/15 06:06:14;;;;;;;6.13;4.40;;;18.20;69.60;;;;;;5030505;28;20478;-77
2023/11/15 06:08:44;;;;;;;6.80;4.37;;;18.30;69.90;;;;;;5029671;28;20454;-77
2023/11/15 06:11:12;;;;;;;5.87;4.70;;;18.30;69.80;;;;;;5039424;28;20462;-77
2023/11/15 06:13:41;;;;;;;6.47;4.47;;;18.20;69.60;;;;;;5036436;28;20484;-77
2023/11/15 06:16:09;;;;;;;4.80;4.10;;;18.30;69.70;;;;;;5026755;28;20433;-77
2023/11/15 06:18:38;;;;;;;5.90;4.60;;;18.30;69.70;;;;;;5027020;28;20966;-77
2023/11/15 06:21:06;;;;;;;4.73;3.77;;;18.20;69.50;;;;;;5025031;28;20467;-77
2023/11/15 06:23:35;;;;;;;7.13;4.20;;;18.20;69.60;;;;;;5028509;28;20474;-77
2023/11/15 06:26:06;;;;;;;5.00;3.97;;;18.20;69.80;;;;;;5031131;28;20454;-77
2023/11/15 06:28:35;;;;;;;4.80;4.00;;;18.20;69.70;;;;;;5032702;28;20489;-78
2023/11/15 06:31:04;;;;;;;5.63;3.80;;;18.30;69.80;;;;;;5024356;28;20502;-76
2023/11/15 06:33:32;;;;;;;6.37;3.97;;;18.30;69.90;;;;;;5032700;28;20486;-76
2023/11/15 06:36:02;;;;;;;5.70;4.30;;;18.20;69.80;;;;;;5036524;28;20451;-75
2023/11/15 06:38:30;;;;;;;4.90;4.00;;;18.20;69.90;;;;;;5027888;28;20499;-77
2023/11/15 06:41:00;;;;;;;4.67;3.77;;;18.20;69.80;;;;;;5030479;28;20478;-75
2023/11/15 06:43:29;;;;;;;3.63;3.30;;;18.30;69.50;;;;;;5028357;28;20452;-76
2023/11/15 06:45:58;;;;;;;3.53;3.23;;;18.20;70.00;;;;;;5032034;28;20451;-77
2023/11/15 06:48:26;;;;;;;4.60;3.50;;;18.20;69.80;;;;;;5032432;28;20525;-76
2023/11/15 06:50:54;;;;;;;3.90;3.50;;;18.20;70.10;;;;;;5024954;28;20458;-77
2023/11/15 06:53:22;;;;;;;4.67;3.60;;;18.30;70.20;;;;;;5018337;28;20452;-75
2023/11/15 06:55:52;;;;;;;3.67;3.37;;;18.30;70.10;;;;;;5027339;28;20974;-77
2023/11/15 06:58:21;;;;;;;4.97;4.03;;;18.20;70.10;;;;;;5032706;28;20481;-75
2023/11/15 07:00:51;;;;;;;4.57;3.50;;;18.20;70.20;;;;;;5024662;28;20558;-77
2023/11/15 07:03:19;;;;;;;4.60;3.57;;;18.20;70.00;;;;;;5026801;28;20456;-75
2023/11/15 07:05:48;;;;;;;4.90;3.63;;;18.30;70.60;;;;;;5021056;28;20448;-76
2023/11/15 07:08:17;;;;;;;3.00;2.80;;;18.30;70.30;;;;;;5019733;28;20467;-75
2023/11/15 07:10:45;;;;;;;4.07;3.13;;;18.20;70.20;;;;;;5032137;28;20484;-77
2023/11/15 07:13:13;;;;;;;3.40;3.10;;;18.20;70.40;;;;;;5023339;28;20513;-76
2023/11/15 07:15:44;;;;;;;3.77;3.37;;;18.20;70.60;;;;;;5031861;28;20436;-76
2023/11/15 07:18:14;;;;;;;3.60;3.30;;;18.30;70.40;;;;;;5043222;28;20466;-77
2023/11/15 07:20:42;;;;;;;4.30;3.60;;;18.30;70.90;;;;;;5043608;28;20474;-77
2023/11/15 07:23:11;;;;;;;3.40;3.10;;;18.30;70.60;;;;;;5029926;28;20862;-76
2023/11/15 07:25:39;;;;;;;3.20;2.90;;;18.30;70.90;;;;;;5032433;28;20447;-77
2023/11/15 07:28:10;;;;;;;3.30;3.07;;;18.30;70.50;;;;;;5038041;28;20471;-77
2023/11/15 07:30:38;;;;;;;3.33;3.03;;;18.30;70.80;;;;;;5047301;28;20499;-76
2023/11/15 07:33:06;;;;;;;3.13;2.90;;;18.40;70.60;;;;;;5036754;28;20529;-77
2023/11/15 07:35:36;;;;;;;3.57;3.27;;;18.30;70.70;;;;;;5043557;28;20537;-77
2023/11/15 07:38:07;;;;;;;3.30;3.00;;;18.30;70.80;;;;;;5031672;28;20462;-76
2023/11/15 07:40:37;;;;;;;3.40;3.10;;;18.30;70.90;;;;;;5031382;28;20527;-76
2023/11/15 07:43:06;;;;;;;3.00;2.80;;;18.30;70.90;;;;;;5038383;28;20443;-76
2023/11/15 07:45:35;;;;;;;3.90;3.50;;;18.30;70.90;;;;;;5037543;28;20454;-76
2023/11/15 07:48:04;;;;;;;3.57;2.90;;;18.30;70.60;;;;;;5042746;28;20480;-77
2023/11/15 07:50:35;;;;;;;3.20;2.90;;;18.30;71.10;;;;;;5045387;28;20653;-77
2023/11/15 07:53:04;;;;;;;3.23;3.03;;;18.40;70.90;;;;;;5047799;28;20474;-78
2023/11/15 07:55:35;;;;;;;3.87;2.90;;;18.40;71.40;;;;;;5018668;28;20441;-75
2023/11/15 07:58:04;;;;;;;3.30;2.87;;;18.40;71.10;;;;;;5031604;28;20562;-75
2023/11/15 08:00:35;;;;;;;4.20;2.97;;;18.40;70.90;;;;;;5031275;28;20501;-74
2023/11/15 08:03:04;;;;;;;4.47;2.97;;;18.40;71.40;;;;;;5029865;28;20447;-76
2023/11/15 08:05:32;;;;;;;3.63;2.40;;;18.40;71.30;;;;;;5031025;28;20493;-75
2023/11/15 08:08:00;;;;;;;3.23;2.93;;;18.40;70.80;;;;;;5025042;28;20475;-75
2023/11/15 08:10:31;;;;;;;3.00;2.80;;;18.40;71.10;;;;;;5022676;28;21012;-73
2023/11/15 08:12:59;;;;;;;2.43;2.20;;;18.40;71.40;;;;;;5031080;28;20438;-77
2023/11/15 08:15:27;;;;;;;2.93;2.73;;;18.40;71.40;;;;;;5030780;28;20439;-75
2023/11/15 08:17:56;;;;;;;3.03;2.83;;;18.40;71.30;;;;;;5027415;28;20513;-76
2023/11/15 08:20:24;;;;;;;3.80;3.30;;;18.50;71.20;;;;;;5030571;28;20471;-74
2023/11/15 08:22:53;;;;;;;3.17;2.80;;;18.50;71.40;;;;;;5023949;28;20494;-75
2023/11/15 08:25:22;;;;;;;3.40;3.10;;;18.50;71.40;;;;;;5026587;28;20530;-78
2023/11/15 08:27:51;;;;;;;3.20;2.90;;;18.50;71.50;;;;;;5018758;28;20456;-77
2023/11/15 08:30:19;;;;;;;2.93;2.73;;;18.50;71.20;;;;;;5018235;28;20496;-78
2023/11/15 08:32:48;;;;;;;3.60;3.23;;;18.50;71.20;;;;;;5041863;28;21006;-77
2023/11/15 08:35:17;;;;;;;3.20;2.90;;;18.60;72.00;;;;;;5045892;28;20453;-78
2023/11/15 08:37:45;;;;;;;3.27;2.97;;;18.60;71.60;;;;;;5035104;28;20448;-75
2023/11/15 08:40:14;;;;;;;3.47;2.80;;;18.60;71.70;;;;;;5035564;28;20452;-77
2023/11/15 08:42:57;;;;;;;3.50;3.00;;;18.70;71.70;;;;;;5025359;28;20456;-77
2023/11/15 08:45:25;;;;;;;3.37;3.07;;;18.70;71.50;;;;;;5030335;28;20543;-75
2023/11/15 08:47:56;;;;;;;11.60;5.20;;;18.70;71.60;;;;;;5019263;28;20527;-78
2023/11/15 08:50:27;;;;;;;7.07;4.67;;;18.30;66.00;;;;;;5019478;28;20473;-77
2023/11/15 08:52:56;;;;;;;7.00;4.70;;;16.70;70.60;;;;;;5023698;28;20447;-77
2023/11/15 08:55:24;;;;;;;13.10;5.60;;;16.10;70.00;;;;;;5019394;28;20444;-77
2023/11/15 08:57:52;;;;;;;8.30;4.90;;;15.50;72.90;;;;;;5025965;28;20455;-78
2023/11/15 09:00:21;;;;;;;9.10;5.30;;;14.90;75.60;;;;;;5028866;28;20467;-78
2023/11/15 09:02:50;;;;;;;8.60;4.97;;;14.20;78.60;;;;;;5021311;28;20529;-77
2023/11/15 09:05:22;;;;;;;10.50;4.97;;;14.90;90.10;;;;;;5030434;28;20450;-78
2023/11/15 09:07:50;;;;;;;5.73;4.50;;;15.80;88.70;;;;;;5024505;28;20440;-78
2023/11/15 09:10:18;;;;;;;6.77;4.27;;;16.50;85.10;;;;;;5033122;28;20542;-77
2023/11/15 09:12:46;;;;;;;5.97;3.77;;;17.00;82.00;;;;;;5032271;28;20527;-77
2023/11/15 09:15:14;;;;;;;5.90;3.40;;;17.30;80.00;;;;;;5031508;28;20422;-76
2023/11/15 09:17:45;;;;;;;5.30;3.47;;;17.50;78.30;;;;;;5033666;28;20448;-75
2023/11/15 09:20:19;;;;;;;6.27;3.10;;;17.70;77.20;;;;;;5033245;28;20519;-76
2023/11/15 09:22:48;;;;;;;6.80;3.57;;;17.90;76.30;;;;;;5035366;28;20471;-76
2023/11/15 09:25:21;;;;;;;5.30;3.40;;;18.00;75.50;;;;;;5033867;28;20475;-77
2023/11/15 09:27:50;;;;;;;6.87;2.87;;;18.20;74.90;;;;;;5034926;28;20474;-77
2023/11/15 09:30:18;;;;;;;3.50;3.20;;;18.20;74.40;;;;;;5034479;28;20427;-77
2023/11/15 09:32:49;;;;;;;3.67;2.83;;;18.30;74.00;;;;;;5036447;28;20447;-76
2023/11/15 09:35:21;;;;;;;3.40;2.80;;;18.40;73.70;;;;;;5037967;28;20447;-77
2023/11/15 09:37:50;;;;;;;4.73;2.60;;;18.50;73.20;;;;;;5036006;28;20443;-77
2023/11/15 09:40:21;;;;;;;3.37;2.30;;;18.60;73.20;;;;;;5036977;28;20431;-77
2023/11/15 09:42:52;;;;;;;3.90;3.27;;;18.60;72.80;;;;;;5034780;28;20475;-77
2023/11/15 09:45:20;;;;;;;3.63;1.97;;;18.70;72.50;;;;;;5035164;28;20451;-77
2023/11/15 09:47:51;;;;;;;2.50;2.30;;;18.70;72.30;;;;;;5035315;28;20451;-77
2023/11/15 09:50:21;;;;;;;4.37;2.60;;;18.70;71.90;;;;;;5035186;28;20451;-76
2023/11/15 09:52:54;;;;;;;4.13;2.20;;;18.80;72.00;;;;;;5030726;28;20538;-77
2023/11/15 09:55:26;;;;;;;4.97;2.70;;;18.80;72.00;;;;;;5033655;28;20538;-78
2023/11/15 09:57:55;;;;;;;4.60;2.37;;;18.80;71.90;;;;;;5032975;28;20931;-77
2023/11/15 10:00:29;;;;;;;4.60;2.67;;;18.90;71.70;;;;;;5025686;28;20483;-77
2023/11/15 10:02:59;;;;;;;2.90;2.40;;;18.90;71.60;;;;;;5030785;28;20525;-77
2023/11/15 10:05:27;;;;;;;2.60;2.33;;;18.90;71.50;;;;;;5031140;28;20471;-76
2023/11/15 10:08:08;;;;;;;2.17;1.97;;;18.90;71.50;;;;;;5033071;28;20466;-74
2023/11/15 10:10:36;;;;;;;3.47;2.73;;;19.00;71.40;;;;;;5032266;28;20514;-76
2023/11/15 10:13:12;;;;;;;2.93;2.53;;;19.00;71.60;;;;;;5031995;28;20428;-76
2023/11/15 10:15:40;;;;;;;2.20;2.00;;;19.00;71.20;;;;;;5030839;28;20522;-76
2023/11/15 10:18:11;;;;;;;2.87;2.10;;;19.00;71.50;;;;;;5027719;28;20467;-76
2023/11/15 10:20:41;;;;;;;3.47;2.60;;;19.00;71.50;;;;;;5038339;28;20440;-77
2023/11/15 10:23:11;;;;;;;2.57;2.30;;;19.00;71.40;;;;;;5030970;28;20472;-76
2023/11/15 10:25:47;;;;;;;2.37;2.17;;;19.10;71.40;;;;;;5031930;28;20478;-76
2023/11/15 10:28:16;;;;;;;3.10;2.30;;;19.20;71.60;;;;;;5042313;28;20534;-76
2023/11/15 10:30:48;;;;;;;3.00;2.20;;;19.20;71.50;;;;;;5036749;28;20450;-76
2023/11/15 10:33:19;;;;;;;2.23;2.03;;;19.20;71.30;;;;;;5039854;28;20486;-75
2023/11/15 10:35:47;;;;;;;2.90;2.43;;;19.30;71.10;;;;;;5046463;28;20541;-75
2023/11/15 10:38:19;;;;;;;2.73;1.90;;;19.40;71.10;;;;;;5043369;28;20463;-76
2023/11/15 10:40:49;;;;;;;2.37;2.10;;;19.40;70.80;;;;;;5033552;28;20882;-76
2023/11/15 10:43:17;;;;;;;2.50;2.30;;;19.40;70.80;;;;;;5022445;28;20483;-76
2023/11/15 10:45:45;;;;;;;2.00;1.90;;;19.40;70.70;;;;;;5031343;28;20445;-77
2023/11/15 10:48:17;;;;;;;2.20;2.10;;;19.40;70.60;;;;;;5027403;28;20487;-78
2023/11/15 10:50:50;;;;;;;3.00;2.33;;;19.50;70.70;;;;;;5036476;28;20476;-75
2023/11/15 10:53:19;;;;;;;2.93;2.20;;;19.50;70.80;;;;;;5026105;28;20942;-78
2023/11/15 10:55:48;;;;;;;2.63;1.90;;;19.50;70.80;;;;;;5031974;28;20494;-75
2023/11/15 10:58:16;;;;;;;4.20;2.23;;;19.60;70.90;;;;;;5026214;28;20527;-76
2023/11/15 11:00:47;;;;;;;2.23;2.03;;;19.60;70.60;;;;;;5029754;28;20443;-75
2023/11/15 11:03:15;;;;;;;2.80;1.87;;;19.60;70.70;;;;;;5032714;28;20909;-76
2023/11/15 11:05:45;;;;;;;2.20;2.00;;;19.60;70.60;;;;;;5024751;28;20439;-76
2023/11/15 11:08:22;;;;;;;6.40;2.43;;;19.60;70.60;;;;;;5024455;28;20525;-74
2023/11/15 11:10:53;;;;;;;2.30;2.20;;;19.60;70.60;;;;;;5031366;28;20447;-76
2023/11/15 11:13:24;;;;;;;2.53;2.33;;;19.60;70.70;;;;;;5030082;28;20429;-77
2023/11/15 11:15:52;;;;;;;2.30;2.10;;;19.50;70.80;;;;;;5021237;28;20539;-78
2023/11/15 11:18:21;;;;;;;3.10;2.63;;;19.60;71.10;;;;;;5024229;28;20522;-78
2023/11/15 11:20:56;;;;;;;3.43;2.17;;;19.60;70.80;;;;;;5024570;28;20479;-78
2023/11/15 11:23:26;;;;;;;2.60;2.20;;;19.70;70.80;;;;;;5031401;28;20513;-78
2023/11/15 11:25:56;;;;;;;2.40;2.30;;;19.70;70.90;;;;;;5030283;28;20923;-78
2023/11/15 11:28:24;;;;;;;2.03;1.90;;;19.80;70.90;;;;;;5031477;28;20545;-78
2023/11/15 11:31:17;;;;;;;3.30;2.10;;;19.80;70.70;;;;;;5030497;28;20512;-77
2023/11/15 11:34:09;;;;;;;2.07;1.87;;;19.80;70.40;;;;;;5024638;28;20934;-78
2023/11/15 11:36:53;;;;;;;3.13;2.00;;;19.80;70.80;;;;;;5017664;28;20444;-77
2023/11/15 11:39:24;;;;;;;2.33;2.13;;;19.80;70.70;;;;;;5030495;28;20542;-76
2023/11/15 11:41:54;;;;;;;2.50;2.30;;;19.80;70.50;;;;;;5031312;28;20435;-78
2023/11/15 11:44:25;;;;;;;2.50;2.20;;;19.80;70.60;;;;;;5030159;28;20457;-77
2023/11/15 11:47:02;;;;;;;2.37;2.17;;;19.70;70.40;;;;;;5030299;28;20513;-78
2023/11/15 11:49:45;;;;;;;3.23;2.93;;;19.70;70.90;;;;;;5029827;28;20505;-77
2023/11/15 11:52:16;;;;;;;2.90;2.70;;;19.70;71.50;;;;;;5028383;28;20466;-77
2023/11/15 11:54:51;;;;;;;3.83;2.80;;;19.70;71.30;;;;;;5028532;28;20534;-78
2023/11/15 11:57:21;;;;;;;4.07;2.50;;;19.80;71.50;;;;;;5029527;28;20452;-78
2023/11/15 12:00:00;;;;;;;2.67;2.47;;;19.80;71.50;;;;;;5030517;28;20478;-76
2023/11/15 12:02:37;;;;;;;4.73;2.43;;;20.10;72.20;;;;;;5030774;28;20982;-79
2023/11/15 12:05:06;;;;;;;6.30;2.80;;;20.20;71.20;;;;;;5026850;28;20447;-77
2023/11/15 12:07:34;;;;;;;2.40;2.20;;;20.20;70.70;;;;;;5022552;28;20460;-77
2023/11/15 12:10:03;;;;;;;8.60;2.77;;;20.20;70.50;;;;;;5020648;28;20514;-76
2023/11/15 12:12:31;;;;;;;3.20;2.87;;;20.10;70.40;;;;;;5026604;28;20444;-76
2023/11/15 12:15:00;;;;;;;4.50;3.20;;;20.10;70.80;;;;;;5021296;28;20444;-76
2023/11/15 12:17:39;;;;;;;4.10;3.60;;;20.00;70.80;;;;;;5027470;28;20454;-76
2023/11/15 12:20:09;;;;;;;4.97;3.30;;;20.10;71.50;;;;;;5030882;28;20443;-76
2023/11/15 12:22:38;;;;;;;6.20;3.70;;;20.20;71.50;;;;;;5026864;28;20546;-78
2023/11/15 12:25:09;;;;;;;4.07;3.43;;;20.40;71.60;;;;;;5024675;28;20488;-77
2023/11/15 12:27:38;;;;;;;6.13;3.70;;;20.60;71.60;;;;;;5028874;28;20448;-79
2023/11/15 12:30:08;;;;;;;5.83;4.10;;;20.70;70.80;;;;;;5025888;28;20467;-76
2023/11/15 12:32:36;;;;;;;4.00;3.60;;;20.80;70.40;;;;;;5029926;28;20468;-79
2023/11/15 12:35:05;;;;;;;4.10;3.70;;;20.80;69.60;;;;;;5030653;28;20481;-79
2023/11/15 12:37:33;;;;;;;4.20;3.77;;;20.80;69.60;;;;;;5026207;28;20439;-79
2023/11/15 12:40:01;;;;;;;5.50;3.53;;;20.70;69.80;;;;;;5021914;28;20462;-79
2023/11/15 12:42:31;;;;;;;5.63;3.30;;;20.70;69.90;;;;;;5026074;28;20431;-79
2023/11/15 12:44:59;;;;;;;4.57;3.93;;;20.60;70.00;;;;;;5034922;28;20462;-79
2023/11/15 12:47:27;;;;;;;4.70;3.73;;;20.50;70.20;;;;;;5033411;28;20439;-78
2023/11/15 12:49:55;;;;;;;4.17;3.60;;;20.40;70.30;;;;;;5032103;28;20471;-79
2023/11/15 12:52:34;;;;;;;3.63;3.33;;;20.40;70.60;;;;;;5026285;28;20451;-79
2023/11/15 12:55:14;;;;;;;4.80;3.60;;;20.30;70.90;;;;;;5027246;28;20449;-78